Time;durP1;ratioP1;P1;durP2;ratioP2;P2;SDS_P1;SDS_P2;PMS_P1;PMS_P2;Temp;Humidity;BMP_temperature;BMP_pressure;BME280_temperature;BME280_humidity;BME280_pressure;Samples;Min_cycle;Max_cycle;Signal;HPM_P1;HPM_P2
2021/11/15 00:00:47;;;;;;;;;;;5.00;99.90;;;;;;5098081;28;19932;-73
2021/11/15 00:03:15;;;;;;;;;;;5.00;99.90;;;;;;5098333;28;19963;-73
2021/11/15 00:05:42;;;;;;;;;;;5.00;99.90;;;;;;5098281;28;19923;-73
2021/11/15 00:08:09;;;;;;;;;;;5.00;99.90;;;;;;5098130;28;20394;-73
2021/11/15 00:10:36;;;;;;;;;;;4.90;99.90;;;;;;5098005;28;19924;-73
2021/11/15 00:13:03;;;;;;;;;;;5.00;99.90;;;;;;5098012;28;19935;-73
2021/11/15 00:15:30;;;;;;;;;;;5.00;99.90;;;;;;5105443;28;19923;-73
2021/11/15 00:17:57;;;;;;;;;;;5.00;99.90;;;;;;5118776;28;19934;-73
2021/11/15 00:20:26;;;;;;;;;;;5.00;99.90;;;;;;5109725;28;19928;-74
2021/11/15 00:22:53;;;;;;;;;;;5.10;99.90;;;;;;5098333;28;19924;-74
2021/11/15 00:25:20;;;;;;;;;;;5.20;99.90;;;;;;5097771;28;19974;-74
2021/11/15 00:27:47;;;;;;;;;;;5.20;99.90;;;;;;5097537;28;19924;-74
2021/11/15 00:30:16;;;;;;;;;;;5.30;99.90;;;;;;5096795;28;20011;-74
2021/11/15 00:32:47;;;;;;;;;;;5.50;99.90;;;;;;5098866;28;20020;-75
2021/11/15 00:35:15;;;;;;;;;;;5.60;99.90;;;;;;5103657;28;19930;-74
2021/11/15 00:37:47;;;;;;;;;;;5.60;99.90;;;;;;5109323;28;19934;-74
2021/11/15 00:40:18;;;;;;;;;;;5.70;99.90;;;;;;5117774;28;19934;-74
2021/11/15 00:42:46;;;;;;;;;;;5.80;99.90;;;;;;5117783;28;19928;-74
2021/11/15 00:45:15;;;;;;;;;;;5.80;99.90;;;;;;5100342;28;19924;-74
2021/11/15 00:47:44;;;;;;;;;;;5.90;99.90;;;;;;5097172;28;19970;-75
2021/11/15 00:50:12;;;;;;;;;;;6.00;99.90;;;;;;5097195;28;19924;-75
2021/11/15 00:52:39;;;;;;;;;;;6.10;99.90;;;;;;5097131;28;19924;-74
2021/11/15 00:55:07;;;;;;;;;;;6.10;99.90;;;;;;5096901;28;19923;-74
2021/11/15 00:57:37;;;;;;;;;;;6.20;99.90;;;;;;5096517;28;19934;-75
2021/11/15 01:00:05;;;;;;;;;;;6.20;99.90;;;;;;5097176;28;19982;-77
2021/11/15 01:02:32;;;;;;;;;;;6.20;99.90;;;;;;5097538;28;20018;-75
2021/11/15 01:04:58;;;;;;;;;;;6.30;99.90;;;;;;5097108;28;19924;-74
2021/11/15 01:07:25;;;;;;;;;;;6.40;99.90;;;;;;5107604;28;20035;-75
2021/11/15 01:09:52;;;;;;;;;;;6.40;99.90;;;;;;5117213;28;19934;-74
2021/11/15 01:12:20;;;;;;;;;;;6.50;99.90;;;;;;5117198;28;19930;-75
2021/11/15 01:14:47;;;;;;;;;;;6.50;99.90;;;;;;5117347;28;19930;-75
2021/11/15 01:17:14;;;;;;;;;;;6.50;99.90;;;;;;5117084;28;20384;-75
2021/11/15 01:19:41;;;;;;;;;;;6.60;99.90;;;;;;5114192;28;20015;-74
2021/11/15 01:22:08;;;;;;;;;;;6.60;99.90;;;;;;5096557;28;20376;-75
2021/11/15 01:24:35;;;;;;;;;;;6.60;99.90;;;;;;5096636;28;19935;-75
2021/11/15 01:27:01;;;;;;;;;;;6.60;99.90;;;;;;5096565;28;19930;-75
2021/11/15 01:29:30;;;;;;;;;;;6.60;99.90;;;;;;5096435;28;19924;-75
2021/11/15 01:31:59;;;;;;;;;;;6.70;99.90;;;;;;5096557;28;19943;-75
2021/11/15 01:34:26;;;;;;;;;;;6.70;99.90;;;;;;5096492;28;20374;-75
2021/11/15 01:36:53;;;;;;;;;;;6.70;99.90;;;;;;5096328;28;20299;-75
2021/11/15 01:39:20;;;;;;;;;;;6.80;99.90;;;;;;5096260;28;20417;-75
2021/11/15 01:41:47;;;;;;;;;;;6.80;99.90;;;;;;5096916;28;19924;-74
2021/11/15 01:44:14;;;;;;;;;;;6.80;99.90;;;;;;5096415;28;19924;-73
2021/11/15 01:46:42;;;;;;;;;;;6.80;99.90;;;;;;5096031;28;20011;-75
2021/11/15 01:49:09;;;;;;;;;;;6.90;99.90;;;;;;5096227;28;19934;-75
2021/11/15 01:51:36;;;;;;;;;;;6.90;99.90;;;;;;5099295;28;20358;-75
2021/11/15 01:54:03;;;;;;;;;;;6.90;99.90;;;;;;5115056;28;19934;-75
2021/11/15 01:56:29;;;;;;;;;;;7.00;99.90;;;;;;5116532;28;19924;-75
2021/11/15 01:58:56;;;;;;;;;;;7.00;99.90;;;;;;5116288;28;19923;-75
2021/11/15 02:01:23;;;;;;;;;;;7.10;99.90;;;;;;5116138;28;19924;-75
2021/11/15 02:03:51;;;;;;;;;;;7.10;99.90;;;;;;5116238;28;19923;-75
2021/11/15 02:06:18;;;;;;;;;;;7.10;99.90;;;;;;5116097;28;19923;-75
2021/11/15 02:08:45;;;;;;;;;;;7.10;99.90;;;;;;5116217;28;19923;-75
2021/11/15 02:11:12;;;;;;;;;;;7.10;99.90;;;;;;5115405;28;19923;-75
2021/11/15 02:13:39;;;;;;;;;;;7.10;99.90;;;;;;5115422;28;19924;-75
2021/11/15 02:16:05;;;;;;;;;;;7.10;99.90;;;;;;5116078;28;19924;-75
2021/11/15 02:18:32;;;;;;;;;;;7.10;99.90;;;;;;5116057;28;19924;-75
2021/11/15 02:21:01;;;;;;;;;;;7.20;99.90;;;;;;5115815;28;19924;-75
2021/11/15 02:23:28;;;;;;;;;;;7.20;99.90;;;;;;5115912;28;19924;-75
2021/11/15 02:25:55;;;;;;;;;;;7.20;99.90;;;;;;5115777;28;19923;-75
2021/11/15 02:28:23;;;;;;;;;;;7.20;99.90;;;;;;5115512;28;19927;-75
2021/11/15 02:30:50;;;;;;;;;;;7.20;99.90;;;;;;5115829;28;19934;-75
2021/11/15 02:33:17;;;;;;;;;;;7.30;99.90;;;;;;5115648;28;20340;-75
2021/11/15 02:35:44;;;;;;;;;;;7.20;99.90;;;;;;5115677;28;19927;-75
2021/11/15 02:38:14;;;;;;;;;;;7.20;99.90;;;;;;5115851;28;19923;-75
2021/11/15 02:40:41;;;;;;;;;;;7.30;99.90;;;;;;5115630;28;20399;-75
2021/11/15 02:43:08;;;;;;;;;;;7.30;99.90;;;;;;5115547;28;19924;-75
2021/11/15 02:45:35;;;;;;;;;;;7.30;99.90;;;;;;5115679;28;19923;-75
2021/11/15 02:48:01;;;;;;;;;;;7.30;99.90;;;;;;5115350;28;20026;-75
2021/11/15 02:50:29;;;;;;;;;;;7.30;99.90;;;;;;5115808;28;20052;-75
2021/11/15 02:52:56;;;;;;;;;;;7.30;99.90;;;;;;5115562;28;19957;-75
2021/11/15 02:55:24;;;;;;;;;;;7.30;99.90;;;;;;5115576;28;19924;-75
2021/11/15 02:57:51;;;;;;;;;;;7.30;99.90;;;;;;5115501;28;20334;-75
2021/11/15 03:00:21;;;;;;;;;;;7.30;99.90;;;;;;5115423;28;19923;-75
2021/11/15 03:02:48;;;;;;;;;;;7.30;99.90;;;;;;5115288;28;19924;-75
2021/11/15 03:05:14;;;;;;;;;;;7.30;99.90;;;;;;5115613;28;19934;-75
2021/11/15 03:07:44;;;;;;;;;;;7.40;99.90;;;;;;5115529;28;19924;-75
2021/11/15 03:10:11;;;;;;;;;;;7.40;99.90;;;;;;5115220;28;19924;-75
2021/11/15 03:12:39;;;;;;;;;;;7.40;99.90;;;;;;5115399;28;19924;-75
2021/11/15 03:15:06;;;;;;;;;;;7.40;99.90;;;;;;5115214;28;19928;-75
2021/11/15 03:17:38;;;;;;;;;;;7.40;99.90;;;;;;5115085;28;20032;-75
2021/11/15 03:20:05;;;;;;;;;;;7.40;99.90;;;;;;5115546;28;20369;-75
2021/11/15 03:22:32;;;;;;;;;;;7.40;99.90;;;;;;5117699;28;20252;-75
2021/11/15 03:24:59;;;;;;;;;;;7.50;99.90;;;;;;5119299;28;19924;-75
2021/11/15 03:27:26;;;;;;;;;;;7.50;99.90;;;;;;5119105;28;19927;-75
2021/11/15 03:29:54;;;;;;;;;;;7.40;99.90;;;;;;5118196;28;19924;-75
2021/11/15 03:32:24;;;;;;;;;;;7.50;99.90;;;;;;5119219;28;19934;-75
2021/11/15 03:34:51;;;;;;;;;;;7.50;99.90;;;;;;5119226;28;19935;-75
2021/11/15 03:37:18;;;;;;;;;;;7.50;99.90;;;;;;5119157;28;19941;-75
2021/11/15 03:39:45;;;;;;;;;;;7.50;99.90;;;;;;5119077;28;19930;-75
2021/11/15 03:42:12;;;;;;;;;;;7.60;99.90;;;;;;5118900;28;19924;-75
2021/11/15 03:44:39;;;;;;;;;;;7.60;99.90;;;;;;5118738;28;19934;-75
2021/11/15 03:47:07;;;;;;;;;;;7.60;99.90;;;;;;5118998;28;19950;-75
2021/11/15 03:49:34;;;;;;;;;;;7.60;99.90;;;;;;5118686;28;19931;-75
2021/11/15 03:52:00;;;;;;;;;;;7.60;99.90;;;;;;5118833;28;19924;-75
2021/11/15 03:54:27;;;;;;;;;;;7.60;99.90;;;;;;5118933;28;19932;-75
2021/11/15 03:56:54;;;;;;;;;;;7.60;99.90;;;;;;5118724;28;19924;-75
2021/11/15 03:59:21;;;;;;;;;;;7.60;99.90;;;;;;5118611;28;20328;-75
2021/11/15 04:01:50;;;;;;;;;;;7.70;99.90;;;;;;5118743;28;19923;-75
2021/11/15 04:04:19;;;;;;;;;;;7.60;99.90;;;;;;5118488;28;20324;-75
2021/11/15 04:06:51;;;;;;;;;;;7.70;99.90;;;;;;5118628;28;19928;-75
2021/11/15 04:09:17;;;;;;;;;;;7.70;99.90;;;;;;5118439;28;20336;-75
2021/11/15 04:11:44;;;;;;;;;;;7.70;99.90;;;;;;5118352;28;19924;-75
2021/11/15 04:14:13;;;;;;;;;;;7.70;99.90;;;;;;5118396;28;19923;-74
2021/11/15 04:16:40;;;;;;;;;;;7.70;99.90;;;;;;5118230;28;19924;-75
2021/11/15 04:19:10;;;;;;;;;;;7.70;99.90;;;;;;5118202;28;19937;-74
2021/11/15 04:21:39;;;;;;;;;;;7.80;99.90;;;;;;5118239;28;19959;-75
2021/11/15 04:24:06;;;;;;;;;;;7.80;99.90;;;;;;5118343;28;19928;-75
2021/11/15 04:26:33;;;;;;;;;;;7.80;99.90;;;;;;5117948;28;19923;-75
2021/11/15 04:29:00;;;;;;;;;;;7.80;99.90;;;;;;5118123;28;19924;-75
2021/11/15 04:31:27;;;;;;;;;;;7.80;99.90;;;;;;5118261;28;19924;-75
2021/11/15 04:33:54;;;;;;;;;;;7.80;99.90;;;;;;5117193;28;19934;-75
2021/11/15 04:36:21;;;;;;;;;;;7.80;99.90;;;;;;5118020;28;19924;-75
2021/11/15 04:38:50;;;;;;;;;;;7.80;99.90;;;;;;5117918;28;19934;-75
2021/11/15 04:41:17;;;;;;;;;;;7.80;99.90;;;;;;5118150;28;19981;-75
2021/11/15 04:43:44;;;;;;;;;;;7.80;99.90;;;;;;5118036;28;19924;-75
2021/11/15 04:46:11;;;;;;;;;;;7.90;99.90;;;;;;5114580;28;19946;-75
2021/11/15 04:48:38;;;;;;;;;;;7.90;99.90;;;;;;5117828;28;19981;-75
2021/11/15 04:51:04;;;;;;;;;;;7.90;99.90;;;;;;5117690;28;20263;-75
2021/11/15 04:53:31;;;;;;;;;;;7.90;99.90;;;;;;5117707;28;20356;-75
2021/11/15 04:56:00;;;;;;;;;;;7.90;99.90;;;;;;5117661;28;19924;-75
2021/11/15 04:58:26;;;;;;;;;;;7.90;99.90;;;;;;5117577;28;19928;-75
2021/11/15 05:00:53;;;;;;;;;;;7.90;99.90;;;;;;5117305;28;19996;-75
2021/11/15 05:03:21;;;;;;;;;;;7.90;99.90;;;;;;5117604;28;19930;-75
2021/11/15 05:05:48;;;;;;;;;;;7.90;99.90;;;;;;5117332;28;19934;-75
2021/11/15 05:08:15;;;;;;;;;;;7.90;99.90;;;;;;5117268;28;19934;-75
2021/11/15 05:10:42;;;;;;;;;;;7.90;99.90;;;;;;5117490;28;19934;-75
2021/11/15 05:13:10;;;;;;;;;;;8.00;99.90;;;;;;5117307;28;20328;-75
2021/11/15 05:15:37;;;;;;;;;;;7.90;99.90;;;;;;5117274;28;19923;-75
2021/11/15 05:18:04;;;;;;;;;;;8.00;99.90;;;;;;5116357;28;19934;-75
2021/11/15 05:20:31;;;;;;;;;;;8.00;99.90;;;;;;5115757;28;19937;-75
2021/11/15 05:22:58;;;;;;;;;;;8.00;99.90;;;;;;5117100;28;19932;-75
2021/11/15 05:25:26;;;;;;;;;;;8.00;99.90;;;;;;5117231;28;19923;-75
2021/11/15 05:27:53;;;;;;;;;;;8.00;99.90;;;;;;5116837;28;19931;-75
2021/11/15 05:30:21;;;;;;;;;;;8.00;99.90;;;;;;5116825;28;19924;-75
2021/11/15 05:32:48;;;;;;;;;;;8.00;99.90;;;;;;5117017;28;19924;-75
2021/11/15 05:35:15;;;;;;;;;;;8.10;99.90;;;;;;5116818;28;20332;-75
2021/11/15 05:37:42;;;;;;;;;;;8.10;99.90;;;;;;5116805;28;19927;-75
2021/11/15 05:40:10;;;;;;;;;;;8.10;99.90;;;;;;5116859;28;19924;-75
2021/11/15 05:42:36;;;;;;;;;;;8.10;99.90;;;;;;5116654;28;20373;-75
2021/11/15 05:45:03;;;;;;;;;;;8.10;99.90;;;;;;5116524;28;19934;-75
2021/11/15 05:47:31;;;;;;;;;;;8.10;99.90;;;;;;5116778;28;19924;-75
2021/11/15 05:49:58;;;;;;;;;;;8.10;99.90;;;;;;5116773;28;19930;-75
2021/11/15 05:52:25;;;;;;;;;;;8.10;99.90;;;;;;5116453;28;19923;-75
2021/11/15 05:54:52;;;;;;;;;;;8.10;99.90;;;;;;5116426;28;19927;-75
2021/11/15 05:57:19;;;;;;;;;;;8.10;99.90;;;;;;5116577;28;20267;-75
2021/11/15 05:59:46;;;;;;;;;;;8.20;99.90;;;;;;5116418;28;19947;-75
2021/11/15 06:02:12;;;;;;;;;;;8.20;99.90;;;;;;5116317;28;20376;-75
2021/11/15 06:04:41;;;;;;;;;;;8.20;99.90;;;;;;5116221;28;19924;-75
2021/11/15 06:07:08;;;;;;;;;;;8.20;99.90;;;;;;5116465;28;19923;-75
2021/11/15 06:09:34;;;;;;;;;;;8.20;99.90;;;;;;5116049;28;20237;-75
2021/11/15 06:12:01;;;;;;;;;;;8.20;99.90;;;;;;5116141;28;19930;-75
2021/11/15 06:14:28;;;;;;;;;;;8.20;99.90;;;;;;5116048;28;19934;-75
2021/11/15 06:16:55;;;;;;;;;;;8.20;99.90;;;;;;5116111;28;19923;-75
2021/11/15 06:19:22;;;;;;;;;;;8.20;99.90;;;;;;5116254;28;19988;-75
2021/11/15 06:21:50;;;;;;;;;;;8.20;99.90;;;;;;5112564;28;19939;-75
2021/11/15 06:24:17;;;;;;;;;;;8.20;99.90;;;;;;5114244;28;19923;-75
2021/11/15 06:26:43;;;;;;;;;;;8.10;99.90;;;;;;5115996;28;20260;-75
2021/11/15 06:29:12;;;;;;;;;;;8.10;99.90;;;;;;5115618;28;19924;-75
2021/11/15 06:31:41;;;;;;;;;;;8.10;99.90;;;;;;5115755;28;19923;-75
2021/11/15 06:34:11;;;;;;;;;;;8.10;99.90;;;;;;5115727;28;19984;-75
2021/11/15 06:36:39;;;;;;;;;;;8.10;99.90;;;;;;5115750;28;20329;-75
2021/11/15 06:39:09;;;;;;;;;;;8.10;99.90;;;;;;5115945;28;19924;-75
2021/11/15 06:41:37;;;;;;;;;;;8.10;99.90;;;;;;5115897;28;19924;-74
2021/11/15 06:44:09;;;;;;;;;;;8.10;99.90;;;;;;5115597;28;20416;-75
2021/11/15 06:46:37;;;;;;;;;;;8.20;99.90;;;;;;5115730;28;19982;-75
2021/11/15 06:49:03;;;;;;;;;;;8.20;99.90;;;;;;5115232;28;19931;-75
2021/11/15 06:51:30;;;;;;;;;;;8.20;99.90;;;;;;5115544;28;19924;-75
2021/11/15 06:53:57;;;;;;;;;;;8.20;99.90;;;;;;5115713;28;19924;-75
2021/11/15 06:56:26;;;;;;;;;;;8.20;99.90;;;;;;5114722;28;20344;-75
2021/11/15 06:58:52;;;;;;;;;;;8.10;99.90;;;;;;5114872;28;20405;-75
2021/11/15 07:01:19;;;;;;;;;;;8.20;99.90;;;;;;5115534;28;19923;-75
2021/11/15 07:03:47;;;;;;;;;;;8.20;99.90;;;;;;5115600;28;19930;-75
2021/11/15 07:06:13;;;;;;;;;;;8.20;99.90;;;;;;5115583;28;20271;-75
2021/11/15 07:08:40;;;;;;;;;;;8.20;99.90;;;;;;5115453;28;19934;-75
2021/11/15 07:11:07;;;;;;;;;;;8.20;99.90;;;;;;5115166;28;19924;-75
2021/11/15 07:13:35;;;;;;;;;;;8.20;99.90;;;;;;5115355;28;19924;-75
2021/11/15 07:16:02;;;;;;;;;;;8.20;99.90;;;;;;5115355;28;19930;-75
2021/11/15 07:18:32;;;;;;;;;;;8.20;99.90;;;;;;5115509;28;19990;-75
2021/11/15 07:20:59;;;;;;;;;;;8.20;99.90;;;;;;5115219;28;19928;-75
2021/11/15 07:23:26;;;;;;;;;;;8.20;99.90;;;;;;5115254;28;19924;-75
2021/11/15 07:25:54;;;;;;;;;;;8.20;99.90;;;;;;5115320;28;19923;-75
2021/11/15 07:28:20;;;;;;;;;;;8.20;99.90;;;;;;5114908;28;19975;-75
2021/11/15 07:30:54;;;;;;;;;;;8.20;99.90;;;;;;5115103;28;19934;-75
2021/11/15 07:33:21;;;;;;;;;;;8.20;99.90;;;;;;5115175;28;20359;-75
2021/11/15 07:35:49;;;;;;;;;;;8.20;99.90;;;;;;5115226;28;19935;-75
2021/11/15 07:38:16;;;;;;;;;;;8.20;99.90;;;;;;5115106;28;19924;-75
2021/11/15 07:40:42;;;;;;;;;;;8.20;99.90;;;;;;5115153;28;20010;-75
2021/11/15 07:43:09;;;;;;;;;;;8.20;99.90;;;;;;5115032;28;19931;-75
2021/11/15 07:45:36;;;;;;;;;;;8.20;99.90;;;;;;5115012;28;20270;-75
2021/11/15 07:48:05;;;;;;;;;;;8.20;99.90;;;;;;5114969;28;19924;-75
2021/11/15 07:50:32;;;;;;;;;;;8.20;99.90;;;;;;5114947;28;20026;-75
2021/11/15 07:52:58;;;;;;;;;;;8.20;99.90;;;;;;5115074;28;19924;-75
2021/11/15 07:55:25;;;;;;;;;;;8.20;99.90;;;;;;5114899;28;20020;-75
2021/11/15 07:57:52;;;;;;;;;;;8.20;99.90;;;;;;5114856;28;20373;-75
2021/11/15 08:00:20;;;;;;;;;;;8.20;99.90;;;;;;5114900;28;20006;-75
2021/11/15 08:02:47;;;;;;;;;;;8.20;99.90;;;;;;5114926;28;19962;-75
2021/11/15 08:05:16;;;;;;;;;;;8.20;99.90;;;;;;5114886;28;19934;-75
2021/11/15 08:07:42;;;;;;;;;;;8.20;99.90;;;;;;5114892;28;19930;-75
2021/11/15 08:10:10;;;;;;;;;;;8.30;99.90;;;;;;5118014;28;19928;-75
2021/11/15 08:12:38;;;;;;;;;;;8.30;99.90;;;;;;5118761;28;20300;-75
2021/11/15 08:15:07;;;;;;;;;;;8.30;99.90;;;;;;5118588;28;19934;-75
2021/11/15 08:17:34;;;;;;;;;;;8.30;99.90;;;;;;5118385;28;20275;-75
2021/11/15 08:20:01;;;;;;;;;;;8.30;99.90;;;;;;5118277;28;20344;-75
2021/11/15 08:22:30;;;;;;;;;;;8.30;99.90;;;;;;5118290;28;20405;-75
2021/11/15 08:25:11;;;;;;;;;;;8.40;99.90;;;;;;5118226;28;19966;-75
2021/11/15 08:27:38;;;;;;;;;;;8.40;99.90;;;;;;5082755;28;19977;-75
2021/11/15 08:30:05;;;;;;;;;;;8.50;99.90;;;;;;5118018;28;20344;-75
2021/11/15 08:32:32;;;;;;;;;;;8.60;99.90;;;;;;5118031;28;19930;-75
2021/11/15 08:34:59;;;;;;;;;;;8.60;99.90;;;;;;5118145;28;19934;-75
2021/11/15 08:37:26;;;;;;;;;;;8.60;99.90;;;;;;5117941;28;19980;-75
2021/11/15 08:39:54;;;;;;;;;;;8.70;99.90;;;;;;5118098;28;19934;-75
2021/11/15 08:42:21;;;;;;;;;;;8.70;99.90;;;;;;5117949;28;19934;-75
2021/11/15 08:44:54;;;;;;;;;;;8.70;99.90;;;;;;5117913;28;19924;-75
2021/11/15 08:47:21;;;;;;;;;;;8.70;99.90;;;;;;5117736;28;19934;-75
2021/11/15 08:49:48;;;;;;;;;;;8.70;99.90;;;;;;5118074;28;19931;-75
2021/11/15 08:52:15;;;;;;;;;;;8.70;99.90;;;;;;5117877;28;19931;-75
2021/11/15 08:54:47;;;;;;;;;;;8.70;99.90;;;;;;5117633;28;20262;-75
2021/11/15 08:57:15;;;;;;;;;;;8.80;99.90;;;;;;5117742;28;19924;-75
2021/11/15 08:59:42;;;;;;;;;;;8.80;99.90;;;;;;5117616;28;19993;-75
2021/11/15 09:02:09;;;;;;;;;;;8.80;99.90;;;;;;5117657;28;20229;-75
2021/11/15 09:04:37;;;;;;;;;;;8.80;99.90;;;;;;5117533;28;19927;-75
2021/11/15 09:07:04;;;;;;;;;;;8.80;99.90;;;;;;5117436;28;19980;-75
2021/11/15 09:09:31;;;;;;;;;;;8.80;99.90;;;;;;5117371;28;20241;-75
2021/11/15 09:12:02;;;;;;;;;;;8.80;99.90;;;;;;5117305;28;19924;-75
2021/11/15 09:14:30;;;;;;;;;;;8.80;99.90;;;;;;5117362;28;19924;-75
2021/11/15 09:16:57;;;;;;;;;;;8.90;99.90;;;;;;5117233;28;20351;-75
2021/11/15 09:19:24;;;;;;;;;;;8.90;99.90;;;;;;5116797;28;19924;-75
2021/11/15 09:21:50;;;;;;;;;;;8.90;99.90;;;;;;5117153;28;19927;-75
2021/11/15 09:24:17;;;;;;;;;;;9.00;99.90;;;;;;5117058;28;19923;-75
2021/11/15 09:26:44;;;;;;;;;;;9.00;99.90;;;;;;5116826;28;20355;-75
2021/11/15 09:29:11;;;;;;;;;;;9.10;99.90;;;;;;5117058;28;19928;-75
2021/11/15 09:31:40;;;;;;;;;;;9.10;99.90;;;;;;5116778;28;19997;-75
2021/11/15 09:34:06;;;;;;;;;;;9.10;99.90;;;;;;5116901;28;20222;-75
2021/11/15 09:36:33;;;;;;;;;;;9.20;99.90;;;;;;5116768;28;19934;-75
2021/11/15 09:39:00;;;;;;;;;;;9.20;99.90;;;;;;5116796;28;19927;-75
2021/11/15 09:41:27;;;;;;;;;;;9.30;99.90;;;;;;5116719;28;19982;-75
2021/11/15 09:43:55;;;;;;;;;;;9.30;99.90;;;;;;5116874;28;20271;-75
2021/11/15 09:46:22;;;;;;;;;;;9.40;99.90;;;;;;5116598;28;19932;-75
2021/11/15 09:48:51;;;;;;;;;;;9.40;99.90;;;;;;5116429;28;20312;-75
2021/11/15 09:51:18;;;;;;;;;;;9.50;99.90;;;;;;5116363;28;19934;-75
2021/11/15 09:53:45;;;;;;;;;;;9.50;99.90;;;;;;5116686;28;19934;-75
2021/11/15 09:56:13;;;;;;;;;;;9.60;99.90;;;;;;5116475;28;19924;-75
2021/11/15 09:58:40;;;;;;;;;;;9.60;99.90;;;;;;5116401;28;19928;-75
2021/11/15 10:01:07;;;;;;;;;;;9.70;99.90;;;;;;5116347;28;20352;-75
2021/11/15 10:03:34;;;;;;;;;;;9.70;99.90;;;;;;5116242;28;19923;-75
2021/11/15 10:06:02;;;;;;;;;;;9.70;99.90;;;;;;5116265;28;19928;-75
2021/11/15 10:08:41;;;;;;;;;;;9.70;99.90;;;;;;5116385;28;19924;-75
2021/11/15 10:11:08;;;;;;;;;;;9.70;99.90;;;;;;5116185;28;20339;-75
2021/11/15 10:13:35;;;;;;;;;;;9.80;99.90;;;;;;5116381;28;19934;-75
2021/11/15 10:16:03;;;;;;;;;;;9.80;99.90;;;;;;5116063;28;19924;-74
2021/11/15 10:18:37;;;;;;;;;;;9.80;99.90;;;;;;5116279;28;19924;-75
2021/11/15 10:21:07;;;;;;;;;;;9.80;99.90;;;;;;5116108;28;19934;-75
2021/11/15 10:23:36;;;;;;;;;;;9.80;99.90;;;;;;5115930;28;20378;-75
2021/11/15 10:26:07;;;;;;;;;;;9.80;99.90;;;;;;5115731;28;19930;-75
2021/11/15 10:28:34;;;;;;;;;;;9.80;99.90;;;;;;5115813;28;20349;-75
2021/11/15 10:31:01;;;;;;;;;;;9.80;99.90;;;;;;5114846;28;19973;-75
2021/11/15 10:33:35;;;;;;;;;;;9.80;99.90;;;;;;5115746;28;19923;-75
2021/11/15 10:36:02;;;;;;;;;;;9.80;99.90;;;;;;5115648;28;19924;-74
2021/11/15 10:38:46;;;;;;;;;;;9.80;99.90;;;;;;5116213;28;19924;-75
2021/11/15 10:41:16;;;;;;;;;;;9.80;99.90;;;;;;5115662;28;19984;-75
2021/11/15 10:43:43;;;;;;;;;;;9.80;99.90;;;;;;5115831;28;19930;-75
2021/11/15 10:46:10;;;;;;;;;;;9.80;99.90;;;;;;5115789;28;19938;-75
2021/11/15 10:48:47;;;;;;;;;;;9.80;99.90;;;;;;5115817;28;19977;-75
2021/11/15 10:51:16;;;;;;;;;;;9.80;99.90;;;;;;5115480;28;20241;-75
2021/11/15 10:53:55;;;;;;;;;;;9.90;99.90;;;;;;5115800;28;19924;-75
2021/11/15 10:56:29;;;;;;;;;;;9.90;99.90;;;;;;5115574;28;19983;-75
2021/11/15 10:58:56;;;;;;;;;;;9.90;99.90;;;;;;5115717;28;19923;-75
2021/11/15 11:01:29;;;;;;;;;;;9.90;99.90;;;;;;5115438;28;19946;-75
2021/11/15 11:04:06;;;;;;;;;;;9.90;99.90;;;;;;5115673;28;19924;-75
2021/11/15 11:06:32;;;;;;;;;;;10.00;99.90;;;;;;5115689;28;19934;-75
2021/11/15 11:08:59;;;;;;;;;;;10.00;99.90;;;;;;5115586;28;19934;-75
2021/11/15 11:11:28;;;;;;;;;;;10.10;99.90;;;;;;5115355;28;19924;-75
2021/11/15 11:13:56;;;;;;;;;;;10.10;99.90;;;;;;5115259;28;19949;-75
2021/11/15 11:16:39;;;;;;;;;;;10.20;99.90;;;;;;5115592;28;19928;-75
2021/11/15 11:19:15;;;;;;;;;;;10.30;99.90;;;;;;5115231;28;20409;-75
2021/11/15 11:22:06;;;;;;;;;;;10.30;99.90;;;;;;5115395;28;19985;-75
2021/11/15 11:24:46;;;;;;;;;;;10.40;99.90;;;;;;5114965;28;20416;-75
2021/11/15 11:27:17;;;;;;;;;;;10.40;99.90;;;;;;5115157;28;19932;-75
2021/11/15 11:29:45;;;;;;;;;;;10.50;99.90;;;;;;5115310;28;19942;-75
2021/11/15 11:32:13;;;;;;;;;;;10.40;99.90;;;;;;5115046;28;20266;-76
2021/11/15 11:34:40;;;;;;;;;;;10.50;99.90;;;;;;5115198;28;19934;-75
2021/11/15 11:37:07;;;;;;;;;;;10.50;99.90;;;;;;5115091;28;19923;-75
2021/11/15 11:39:35;;;;;;;;;;;10.60;99.90;;;;;;5115439;28;19981;-75
2021/11/15 11:42:02;;;;;;;;;;;10.60;99.90;;;;;;5115052;28;20000;-75
2021/11/15 11:44:30;;;;;;;;;;;10.60;99.90;;;;;;5119052;28;20010;-75
2021/11/15 11:46:57;;;;;;;;;;;10.60;99.90;;;;;;5119117;28;19924;-75
2021/11/15 11:49:27;;;;;;;;;;;10.70;99.90;;;;;;5119108;28;20379;-75
2021/11/15 11:51:56;;;;;;;;;;;10.70;99.90;;;;;;5118964;28;19931;-75
2021/11/15 11:54:24;;;;;;;;;;;10.70;99.90;;;;;;5118679;28;19923;-75
2021/11/15 11:57:14;;;;;;;;;;;10.80;99.90;;;;;;5118947;28;20294;-75
2021/11/15 11:59:58;;;;;;;;;;;10.80;99.90;;;;;;5103240;28;19924;-75
2021/11/15 12:02:25;;;;;;;;;;;10.90;99.90;;;;;;5118843;28;19984;-75
2021/11/15 12:04:52;;;;;;;;;;;10.90;99.90;;;;;;5118783;28;19931;-75
2021/11/15 12:07:23;;;;;;;;;;;10.90;99.90;;;;;;5118583;28;19930;-75
2021/11/15 12:09:50;;;;;;;;;;;10.90;99.90;;;;;;5118626;28;19924;-75
2021/11/15 12:12:17;;;;;;;;;;;11.00;99.90;;;;;;5118347;28;19924;-75
2021/11/15 12:14:45;;;;;;;;;;;11.00;99.90;;;;;;5118413;28;19934;-75
2021/11/15 12:17:14;;;;;;;;;;;11.00;99.90;;;;;;5118390;28;19934;-74
2021/11/15 12:20:11;;;;;;;;;;;11.00;99.90;;;;;;5118356;28;19982;-75
2021/11/15 12:22:57;;;;;;;;;;;11.00;99.90;;;;;;5118319;28;20351;-76
2021/11/15 12:25:25;;;;;;;;;;;11.00;99.90;;;;;;5118212;28;19931;-74
2021/11/15 12:27:53;;;;;;;;;;;11.00;99.90;;;;;;5117890;28;19934;-74
2021/11/15 12:30:22;;;;;;;;;;;11.00;99.90;;;;;;5118380;28;19946;-74
2021/11/15 12:33:04;;;;;;;;;;;11.00;99.90;;;;;;5118051;28;19934;-75
2021/11/15 12:35:37;;;;;;;;;;;11.00;99.90;;;;;;5118128;28;19924;-74
2021/11/15 12:38:03;;;;;;;;;;;11.10;99.90;;;;;;5118030;28;19924;-75
2021/11/15 12:40:35;;;;;;;;;;;11.10;99.90;;;;;;5118253;28;19934;-75
2021/11/15 12:43:15;;;;;;;;;;;11.00;99.90;;;;;;5117970;28;19928;-75
2021/11/15 12:45:50;;;;;;;;;;;11.10;99.90;;;;;;5117800;28;19928;-75
2021/11/15 12:48:32;;;;;;;;;;;11.00;99.90;;;;;;5117665;28;19950;-75
2021/11/15 12:50:59;;;;;;;;;;;11.00;99.90;;;;;;5117791;28;20354;-75
2021/11/15 12:53:26;;;;;;;;;;;11.00;99.90;;;;;;5117473;28;19930;-75
2021/11/15 12:55:53;;;;;;;;;;;11.00;99.90;;;;;;5117169;28;19935;-79
2021/11/15 12:58:21;;;;;;;;;;;11.00;99.90;;;;;;5117648;28;19923;-79
2021/11/15 13:00:47;;;;;;;;;;;11.00;99.90;;;;;;5118340;28;19924;-77
2021/11/15 13:03:16;;;;;;;;;;;11.00;99.90;;;;;;5117782;28;19930;-76
2021/11/15 13:05:43;;;;;;;;;;;11.00;99.90;;;;;;5117436;28;19928;-76
2021/11/15 13:08:10;;;;;;;;;;;11.00;99.90;;;;;;5117879;28;19924;-77
2021/11/15 13:10:38;;;;;;;;;;;10.90;99.90;;;;;;5118176;28;19923;-77
2021/11/15 13:13:05;;;;;;;;;;;11.00;99.90;;;;;;5117587;28;20021;-77
2021/11/15 13:15:31;;;;;;;;;;;11.00;99.90;;;;;;5117104;28;20366;-77
2021/11/15 13:17:58;;;;;;;;;;;10.90;99.90;;;;;;5117070;28;19930;-82
2021/11/15 13:20:27;;;;;;;;;;;11.00;99.90;;;;;;5117130;28;19924;-76
2021/11/15 13:22:54;;;;;;;;;;;11.00;99.90;;;;;;5117162;28;19924;-76
2021/11/15 13:25:20;;;;;;;;;;;11.00;99.90;;;;;;5117594;28;19923;-77
2021/11/15 13:27:47;;;;;;;;;;;11.00;99.90;;;;;;5116798;28;19924;-78
2021/11/15 13:30:15;;;;;;;;;;;11.00;99.90;;;;;;5119026;28;19950;-80
2021/11/15 13:32:46;;;;;;;;;;;11.00;99.90;;;;;;5117124;28;20006;-79
2021/11/15 13:35:12;;;;;;;;;;;11.00;99.90;;;;;;5116940;28;19928;-83
2021/11/15 13:37:41;;;;;;;;;;;11.00;99.90;;;;;;5116400;28;19923;-81
2021/11/15 13:40:08;;;;;;;;;;;11.10;99.90;;;;;;5116757;28;19924;-81
2021/11/15 13:42:35;;;;;;;;;;;11.10;99.90;;;;;;5116792;28;19923;-84
2021/11/15 13:45:02;;;;;;;;;;;11.10;99.90;;;;;;5116756;28;19924;-80
2021/11/15 13:47:29;;;;;;;;;;;11.10;99.90;;;;;;5116931;28;19924;-80
2021/11/15 13:49:55;;;;;;;;;;;11.10;99.90;;;;;;5107228;28;19924;-80
2021/11/15 13:52:23;;;;;;;;;;;11.10;99.90;;;;;;5095838;28;20314;-80
2021/11/15 13:54:52;;;;;;;;;;;11.10;99.90;;;;;;5096187;28;19954;-79
2021/11/15 13:57:20;;;;;;;;;;;11.10;99.90;;;;;;5095985;28;19924;-79
2021/11/15 13:59:47;;;;;;;;;;;11.10;99.90;;;;;;5096257;28;19951;-79
2021/11/15 14:02:14;;;;;;;;;;;11.10;99.90;;;;;;5101349;28;20256;-79
2021/11/15 14:04:40;;;;;;;;;;;11.10;99.90;;;;;;5113354;28;19923;-79
2021/11/15 14:07:07;;;;;;;;;;;11.10;99.90;;;;;;5107936;28;20268;-81
2021/11/15 14:09:34;;;;;;;;;;;11.10;99.90;;;;;;5095894;28;19934;-79
2021/11/15 14:12:02;;;;;;;;;;;11.10;99.90;;;;;;5095829;28;19935;-85
2021/11/15 14:14:29;;;;;;;;;;;11.10;99.90;;;;;;5095937;28;19924;-79
2021/11/15 14:16:56;;;;;;;;;;;11.20;99.90;;;;;;5095824;28;19924;-85
2021/11/15 14:19:23;;;;;;;;;;;11.20;99.90;;;;;;5095792;28;19928;-81
2021/11/15 14:21:50;;;;;;;;;;;11.20;99.90;;;;;;5095422;28;19935;-83
2021/11/15 14:24:17;;;;;;;;;;;11.20;99.90;;;;;;5095745;28;20401;-79
2021/11/15 14:26:44;;;;;;;;;;;11.20;99.90;;;;;;5095327;28;19986;-84
2021/11/15 14:29:12;;;;;;;;;;;11.10;99.90;;;;;;5094030;28;20264;-79
2021/11/15 14:31:39;;;;;;;;;;;11.20;99.90;;;;;;5095598;28;19924;-86